sensor_id;sensor_type;location;lat;lon;timestamp;pressure;altitude;pressure_sealevel;temperature;humidity
7962;BME280;4026;43.652;24.906;2022-09-17T00:01:18;98139.44;;;20.56;78.10
7962;BME280;4026;43.652;24.906;2022-09-17T00:03:49;98137.03;;;20.48;77.92
7962;BME280;4026;43.652;24.906;2022-09-17T00:06:18;98133.44;;;20.49;78.36
7962;BME280;4026;43.652;24.906;2022-09-17T00:08:46;98144.03;;;20.48;78.31
7962;BME280;4026;43.652;24.906;2022-09-17T00:11:14;98147.19;;;20.43;78.47
7962;BME280;4026;43.652;24.906;2022-09-17T00:13:42;98144.00;;;20.41;78.13
7962;BME280;4026;43.652;24.906;2022-09-17T00:16:10;98126.44;;;20.50;78.11
7962;BME280;4026;43.652;24.906;2022-09-17T00:18:37;98122.81;;;20.44;78.16
7962;BME280;4026;43.652;24.906;2022-09-17T00:21:14;98129.19;;;20.35;78.09
7962;BME280;4026;43.652;24.906;2022-09-17T00:23:41;98138.38;;;20.31;78.38
7962;BME280;4026;43.652;24.906;2022-09-17T00:26:08;98140.38;;;20.29;78.65
7962;BME280;4026;43.652;24.906;2022-09-17T00:28:35;98127.41;;;20.29;78.39
7962;BME280;4026;43.652;24.906;2022-09-17T00:31:06;98109.22;;;20.29;78.05
7962;BME280;4026;43.652;24.906;2022-09-17T00:33:34;98101.44;;;20.29;78.16
7962;BME280;4026;43.652;24.906;2022-09-17T00:36:02;98106.22;;;20.32;78.44
7962;BME280;4026;43.652;24.906;2022-09-17T00:38:31;98107.63;;;20.28;78.02
7962;BME280;4026;43.652;24.906;2022-09-17T00:40:58;98108.63;;;20.27;78.30
7962;BME280;4026;43.652;24.906;2022-09-17T00:43:37;98107.63;;;20.28;78.21
7962;BME280;4026;43.652;24.906;2022-09-17T00:46:13;98106.81;;;20.21;77.63
7962;BME280;4026;43.652;24.906;2022-09-17T00:48:42;98116.19;;;20.15;77.56
7962;BME280;4026;43.652;24.906;2022-09-17T00:51:10;98120.78;;;20.13;77.25
7962;BME280;4026;43.652;24.906;2022-09-17T00:53:41;98121.78;;;20.19;77.09
7962;BME280;4026;43.652;24.906;2022-09-17T00:56:12;98106.41;;;20.24;76.98
7962;BME280;4026;43.652;24.906;2022-09-17T00:58:40;98102.44;;;20.28;76.74
7962;BME280;4026;43.652;24.906;2022-09-17T01:01:07;98107.25;;;20.31;76.75
7962;BME280;4026;43.652;24.906;2022-09-17T01:03:34;98097.25;;;20.28;76.26
7962;BME280;4026;43.652;24.906;2022-09-17T01:06:11;98098.84;;;20.35;76.02
7962;BME280;4026;43.652;24.906;2022-09-17T01:08:51;98104.06;;;20.42;76.33
7962;BME280;4026;43.652;24.906;2022-09-17T01:11:36;98098.06;;;20.48;76.21
7962;BME280;4026;43.652;24.906;2022-09-17T01:14:16;98095.09;;;20.51;75.34
7962;BME280;4026;43.652;24.906;2022-09-17T01:16:52;98104.09;;;20.55;74.33
7962;BME280;4026;43.652;24.906;2022-09-17T01:19:40;98104.09;;;20.55;75.02
7962;BME280;4026;43.652;24.906;2022-09-17T01:22:17;98081.94;;;20.66;76.92
7962;BME280;4026;43.652;24.906;2022-09-17T01:25:10;98046.56;;;20.72;78.82
7962;BME280;4026;43.652;24.906;2022-09-17T01:31:01;98057.16;;;20.64;82.34
7962;BME280;4026;43.652;24.906;2022-09-17T01:33:36;98043.78;;;20.60;83.03
7962;BME280;4026;43.652;24.906;2022-09-17T01:36:16;98058.56;;;20.60;83.91
7962;BME280;4026;43.652;24.906;2022-09-17T01:38:51;98063.75;;;20.60;83.84
7962;BME280;4026;43.652;24.906;2022-09-17T01:41:25;98062.13;;;20.58;84.48
7962;BME280;4026;43.652;24.906;2022-09-17T01:43:56;98056.53;;;20.48;85.02
7962;BME280;4026;43.652;24.906;2022-09-17T01:46:29;98057.34;;;20.42;85.85
7962;BME280;4026;43.652;24.906;2022-09-17T01:48:59;98059.72;;;20.44;85.32
7962;BME280;4026;43.652;24.906;2022-09-17T01:51:31;98058.91;;;20.43;85.33
7962;BME280;4026;43.652;24.906;2022-09-17T01:54:05;98056.31;;;20.43;84.96
7962;BME280;4026;43.652;24.906;2022-09-17T01:56:37;98046.94;;;20.42;84.85
7962;BME280;4026;43.652;24.906;2022-09-17T01:59:13;98042.16;;;20.39;84.65
7962;BME280;4026;43.652;24.906;2022-09-17T02:01:46;98039.16;;;20.42;84.06
7962;BME280;4026;43.652;24.906;2022-09-17T02:04:18;98041.34;;;20.45;85.11
7962;BME280;4026;43.652;24.906;2022-09-17T02:06:52;98045.94;;;20.43;85.21
7962;BME280;4026;43.652;24.906;2022-09-17T02:09:26;98036.13;;;20.39;84.96
7962;BME280;4026;43.652;24.906;2022-09-17T02:11:58;98042.16;;;20.39;83.85
7962;BME280;4026;43.652;24.906;2022-09-17T02:14:30;98042.94;;;20.40;84.09
7962;BME280;4026;43.652;24.906;2022-09-17T02:17:05;98038.94;;;20.44;84.51
7962;BME280;4026;43.652;24.906;2022-09-17T02:19:37;98044.94;;;20.44;85.03
7962;BME280;4026;43.652;24.906;2022-09-17T02:22:13;98043.94;;;20.45;85.45
7962;BME280;4026;43.652;24.906;2022-09-17T02:24:46;98048.53;;;20.43;84.07
7962;BME280;4026;43.652;24.906;2022-09-17T02:27:23;98049.94;;;20.39;81.95
7962;BME280;4026;43.652;24.906;2022-09-17T02:29:55;98044.94;;;20.38;80.90
7962;BME280;4026;43.652;24.906;2022-09-17T02:32:23;98036.97;;;20.39;81.51
7962;BME280;4026;43.652;24.906;2022-09-17T02:34:50;98032.97;;;20.43;80.19
7962;BME280;4026;43.652;24.906;2022-09-17T02:37:17;98034.16;;;20.41;80.23
7962;BME280;4026;43.652;24.906;2022-09-17T02:39:44;98022.97;;;20.40;81.04
7962;BME280;4026;43.652;24.906;2022-09-17T02:42:20;98011.56;;;20.41;80.89
7962;BME280;4026;43.652;24.906;2022-09-17T02:44:56;98010.19;;;20.45;80.07
7962;BME280;4026;43.652;24.906;2022-09-17T02:47:57;98011.59;;;20.48;79.99
7962;BME280;4026;43.652;24.906;2022-09-17T02:50:36;97991.00;;;20.46;79.86
7962;BME280;4026;43.652;24.906;2022-09-17T02:53:19;97983.22;;;20.46;79.68
7962;BME280;4026;43.652;24.906;2022-09-17T02:55:59;97987.00;;;20.44;79.21
7962;BME280;4026;43.652;24.906;2022-09-17T02:58:32;97981.44;;;20.40;79.33
7962;BME280;4026;43.652;24.906;2022-09-17T03:01:07;97972.25;;;20.38;80.10
7962;BME280;4026;43.652;24.906;2022-09-17T03:03:42;97967.06;;;20.31;80.15
7962;BME280;4026;43.652;24.906;2022-09-17T03:06:11;97970.25;;;20.26;80.22
7962;BME280;4026;43.652;24.906;2022-09-17T03:08:40;97965.28;;;20.25;80.52
7962;BME280;4026;43.652;24.906;2022-09-17T03:11:09;97959.47;;;20.23;81.17
7962;BME280;4026;43.652;24.906;2022-09-17T03:13:37;97955.88;;;20.17;80.41
7962;BME280;4026;43.652;24.906;2022-09-17T03:16:05;97958.47;;;20.10;78.83
7962;BME280;4026;43.652;24.906;2022-09-17T03:18:32;97944.69;;;20.10;78.48
7962;BME280;4026;43.652;24.906;2022-09-17T03:21:00;97938.13;;;20.07;77.86
7962;BME280;4026;43.652;24.906;2022-09-17T03:23:27;97931.94;;;20.08;76.46
7962;BME280;4026;43.652;24.906;2022-09-17T03:25:54;97924.34;;;20.13;76.51
7962;BME280;4026;43.652;24.906;2022-09-17T03:28:21;97912.16;;;20.21;76.02
7962;BME280;4026;43.652;24.906;2022-09-17T03:30:50;97923.13;;;20.23;76.16
7962;BME280;4026;43.652;24.906;2022-09-17T03:33:16;97922.94;;;20.18;76.23
7962;BME280;4026;43.652;24.906;2022-09-17T03:35:44;97927.53;;;20.16;76.40
7962;BME280;4026;43.652;24.906;2022-09-17T03:38:13;97917.94;;;20.09;77.09
7962;BME280;4026;43.652;24.906;2022-09-17T03:40:40;97921.16;;;20.05;77.13
7962;BME280;4026;43.652;24.906;2022-09-17T03:43:07;97911.16;;;20.08;77.09
7962;BME280;4026;43.652;24.906;2022-09-17T03:45:34;97904.59;;;20.06;76.94
7962;BME280;4026;43.652;24.906;2022-09-17T03:48:01;97895.22;;;20.05;76.64
7962;BME280;4026;43.652;24.906;2022-09-17T03:50:28;97893.59;;;20.04;76.55
7962;BME280;4026;43.652;24.906;2022-09-17T03:52:55;97897.19;;;20.03;75.70
7962;BME280;4026;43.652;24.906;2022-09-17T03:55:23;97912.38;;;19.99;76.45
7962;BME280;4026;43.652;24.906;2022-09-17T03:57:50;97909.97;;;19.98;76.09
7962;BME280;4026;43.652;24.906;2022-09-17T04:00:17;97901.19;;;19.92;76.33
7962;BME280;4026;43.652;24.906;2022-09-17T04:02:43;97903.59;;;19.87;76.44
7962;BME280;4026;43.652;24.906;2022-09-17T04:05:10;97891.22;;;19.82;76.64
7962;BME280;4026;43.652;24.906;2022-09-17T04:07:39;97891.03;;;19.90;76.54
7962;BME280;4026;43.652;24.906;2022-09-17T04:10:07;97895.19;;;19.98;75.69
7962;BME280;4026;43.652;24.906;2022-09-17T04:12:35;97891.22;;;19.96;76.30
7962;BME280;4026;43.652;24.906;2022-09-17T04:15:02;97891.63;;;19.99;76.30
7962;BME280;4026;43.652;24.906;2022-09-17T04:17:29;97898.81;;;20.10;75.63
7962;BME280;4026;43.652;24.906;2022-09-17T04:19:57;97900.38;;;20.11;75.08
7962;BME280;4026;43.652;24.906;2022-09-17T04:22:24;97886.00;;;20.09;75.10
7962;BME280;4026;43.652;24.906;2022-09-17T04:24:51;97884.81;;;20.11;74.95
7962;BME280;4026;43.652;24.906;2022-09-17T04:27:18;97886.00;;;20.16;74.48
7962;BME280;4026;43.652;24.906;2022-09-17T04:29:46;97881.63;;;20.23;74.30
7962;BME280;4026;43.652;24.906;2022-09-17T04:32:13;97887.56;;;20.30;74.09
7962;BME280;4026;43.652;24.906;2022-09-17T04:34:39;97890.78;;;20.32;73.94
7962;BME280;4026;43.652;24.906;2022-09-17T04:37:06;97892.75;;;20.43;73.98
7962;BME280;4026;43.652;24.906;2022-09-17T04:39:33;97891.75;;;20.44;73.62
7962;BME280;4026;43.652;24.906;2022-09-17T04:42:00;97891.56;;;20.46;73.22
7962;BME280;4026;43.652;24.906;2022-09-17T04:44:27;97890.75;;;20.52;72.73
7962;BME280;4026;43.652;24.906;2022-09-17T04:46:55;97883.56;;;20.61;72.44
7962;BME280;4026;43.652;24.906;2022-09-17T04:49:22;97880.72;;;20.69;71.97
7962;BME280;4026;43.652;24.906;2022-09-17T04:51:49;97874.31;;;20.78;71.25
7962;BME280;4026;43.652;24.906;2022-09-17T04:54:16;97873.25;;;20.92;70.01
7962;BME280;4026;43.652;24.906;2022-09-17T04:56:43;97871.59;;;21.05;69.82
7962;BME280;4026;43.652;24.906;2022-09-17T04:59:09;97874.53;;;21.15;69.73
7962;BME280;4026;43.652;24.906;2022-09-17T05:01:36;97876.09;;;21.22;69.75
7962;BME280;4026;43.652;24.906;2022-09-17T05:04:04;97878.06;;;21.27;70.26
7962;BME280;4026;43.652;24.906;2022-09-17T05:06:31;97896.84;;;21.29;71.58
7962;BME280;4026;43.652;24.906;2022-09-17T05:08:58;97896.09;;;21.22;72.17
7962;BME280;4026;43.652;24.906;2022-09-17T05:11:26;97910.13;;;21.14;72.63
7962;BME280;4026;43.652;24.906;2022-09-17T05:13:53;97900.50;;;21.21;72.47
7962;BME280;4026;43.652;24.906;2022-09-17T05:16:20;97895.25;;;21.28;73.86
7962;BME280;4026;43.652;24.906;2022-09-17T05:18:47;97895.63;;;21.32;73.91
7962;BME280;4026;43.652;24.906;2022-09-17T05:21:17;97902.84;;;21.30;73.40
7962;BME280;4026;43.652;24.906;2022-09-17T05:23:45;97898.03;;;21.33;73.35
7962;BME280;4026;43.652;24.906;2022-09-17T05:26:12;97903.44;;;21.32;73.39
7962;BME280;4026;43.652;24.906;2022-09-17T05:28:40;97907.41;;;21.34;73.87
7962;BME280;4026;43.652;24.906;2022-09-17T05:31:07;97897.44;;;21.31;74.65
7962;BME280;4026;43.652;24.906;2022-09-17T05:33:34;97888.66;;;21.32;74.09
7962;BME280;4026;43.652;24.906;2022-09-17T05:36:01;97901.03;;;21.30;73.90
7962;BME280;4026;43.652;24.906;2022-09-17T05:38:29;97897.44;;;21.31;74.61
7962;BME280;4026;43.652;24.906;2022-09-17T05:40:56;97900.69;;;21.20;74.35
7962;BME280;4026;43.652;24.906;2022-09-17T05:43:23;97902.03;;;21.29;73.62
7962;BME280;4026;43.652;24.906;2022-09-17T05:45:50;97898.81;;;21.40;74.01
7962;BME280;4026;43.652;24.906;2022-09-17T05:48:18;97882.41;;;21.40;73.70
7962;BME280;4026;43.652;24.906;2022-09-17T05:50:45;97881.19;;;21.42;73.62
7962;BME280;4026;43.652;24.906;2022-09-17T05:53:13;97875.94;;;21.49;73.22
7962;BME280;4026;43.652;24.906;2022-09-17T05:55:41;97880.78;;;21.45;73.59
7962;BME280;4026;43.652;24.906;2022-09-17T05:58:09;97884.75;;;21.48;72.49
7962;BME280;4026;43.652;24.906;2022-09-17T06:00:37;97894.38;;;21.47;74.81
7962;BME280;4026;43.652;24.906;2022-09-17T06:03:04;97897.53;;;21.50;74.22
7962;BME280;4026;43.652;24.906;2022-09-17T06:05:31;97891.19;;;21.45;75.10
7962;BME280;4026;43.652;24.906;2022-09-17T06:07:57;97895.59;;;21.45;75.22
7962;BME280;4026;43.652;24.906;2022-09-17T06:10:24;97906.34;;;21.48;74.22
7962;BME280;4026;43.652;24.906;2022-09-17T06:12:56;97892.75;;;21.53;75.20
7962;BME280;4026;43.652;24.906;2022-09-17T06:15:23;97904.53;;;21.56;74.68
7962;BME280;4026;43.652;24.906;2022-09-17T06:17:50;97904.31;;;21.57;73.25
7962;BME280;4026;43.652;24.906;2022-09-17T06:20:17;97901.69;;;21.57;72.29
7962;BME280;4026;43.652;24.906;2022-09-17T06:22:44;97917.84;;;21.66;71.21
7962;BME280;4026;43.652;24.906;2022-09-17T06:25:11;97911.44;;;21.68;70.63
7962;BME280;4026;43.652;24.906;2022-09-17T06:27:38;97912.56;;;21.79;70.19
7962;BME280;4026;43.652;24.906;2022-09-17T06:30:07;97919.41;;;21.74;70.86
7962;BME280;4026;43.652;24.906;2022-09-17T06:32:34;97934.84;;;21.68;71.31
7962;BME280;4026;43.652;24.906;2022-09-17T06:35:01;97947.06;;;21.68;71.72
7962;BME280;4026;43.652;24.906;2022-09-17T06:37:29;97948.66;;;21.69;69.48
7962;BME280;4026;43.652;24.906;2022-09-17T06:39:56;97949.56;;;21.81;68.11
7962;BME280;4026;43.652;24.906;2022-09-17T06:42:24;97951.66;;;21.98;68.17
7962;BME280;4026;43.652;24.906;2022-09-17T06:44:50;97946.81;;;22.01;67.36
7962;BME280;4026;43.652;24.906;2022-09-17T06:47:19;97943.59;;;22.06;67.13
7962;BME280;4026;43.652;24.906;2022-09-17T06:49:46;97935.94;;;22.11;66.49
7962;BME280;4026;43.652;24.906;2022-09-17T06:52:13;97936.28;;;22.21;66.84
7962;BME280;4026;43.652;24.906;2022-09-17T06:54:39;97928.91;;;22.18;67.04
7962;BME280;4026;43.652;24.906;2022-09-17T06:57:06;97925.53;;;22.11;66.80
7962;BME280;4026;43.652;24.906;2022-09-17T06:59:33;97936.50;;;22.20;67.06
7962;BME280;4026;43.652;24.906;2022-09-17T07:02:00;97938.88;;;22.21;66.08
7962;BME280;4026;43.652;24.906;2022-09-17T07:04:28;97932.63;;;22.29;66.98
7962;BME280;4026;43.652;24.906;2022-09-17T07:06:55;97924.56;;;22.30;69.47
7962;BME280;4026;43.652;24.906;2022-09-17T07:09:22;97929.06;;;22.23;69.75
7962;BME280;4026;43.652;24.906;2022-09-17T07:11:49;97938.19;;;22.32;72.19
7962;BME280;4026;43.652;24.906;2022-09-17T07:14:15;97933.41;;;22.29;70.96
7962;BME280;4026;43.652;24.906;2022-09-17T07:16:43;97923.00;;;22.29;72.21
7962;BME280;4026;43.652;24.906;2022-09-17T07:19:10;97927.78;;;22.32;71.32
7962;BME280;4026;43.652;24.906;2022-09-17T07:21:38;97913.28;;;22.36;69.54
7962;BME280;4026;43.652;24.906;2022-09-17T07:24:05;97915.63;;;22.45;71.86
7962;BME280;4026;43.652;24.906;2022-09-17T07:26:32;97922.44;;;22.46;71.32
7962;BME280;4026;43.652;24.906;2022-09-17T07:28:59;97928.81;;;22.50;71.38
7962;BME280;4026;43.652;24.906;2022-09-17T07:31:26;97941.25;;;22.48;71.52
7962;BME280;4026;43.652;24.906;2022-09-17T07:33:53;97937.69;;;22.42;72.33
7962;BME280;4026;43.652;24.906;2022-09-17T07:36:20;97930.81;;;22.48;70.50
7962;BME280;4026;43.652;24.906;2022-09-17T07:38:48;97931.91;;;22.58;71.85
7962;BME280;4026;43.652;24.906;2022-09-17T07:41:16;97933.06;;;22.63;72.13
7962;BME280;4026;43.652;24.906;2022-09-17T07:43:43;97944.44;;;22.68;73.13
7962;BME280;4026;43.652;24.906;2022-09-17T07:46:12;97943.00;;;22.72;71.34
7962;BME280;4026;43.652;24.906;2022-09-17T07:48:39;97934.69;;;22.82;69.51
7962;BME280;4026;43.652;24.906;2022-09-17T07:51:06;97943.44;;;23.06;69.26
7962;BME280;4026;43.652;24.906;2022-09-17T07:53:33;97935.41;;;23.38;67.52
7962;BME280;4026;43.652;24.906;2022-09-17T07:56:01;97947.59;;;23.74;68.89
7962;BME280;4026;43.652;24.906;2022-09-17T07:58:30;97947.84;;;23.96;66.03
7962;BME280;4026;43.652;24.906;2022-09-17T08:01:01;97943.56;;;24.25;66.03
7962;BME280;4026;43.652;24.906;2022-09-17T08:03:28;97944.72;;;24.41;63.88
7962;BME280;4026;43.652;24.906;2022-09-17T08:06:00;97944.03;;;24.57;64.10
7962;BME280;4026;43.652;24.906;2022-09-17T08:08:29;97942.41;;;24.80;60.75
7962;BME280;4026;43.652;24.906;2022-09-17T08:10:59;97950.25;;;25.32;63.33
7962;BME280;4026;43.652;24.906;2022-09-17T08:13:28;97950.50;;;25.76;59.07
7962;BME280;4026;43.652;24.906;2022-09-17T08:15:57;97957.59;;;25.92;59.82
7962;BME280;4026;43.652;24.906;2022-09-17T08:18:25;97963.78;;;26.03;59.22
7962;BME280;4026;43.652;24.906;2022-09-17T08:20:56;97959.41;;;26.09;58.48
7962;BME280;4026;43.652;24.906;2022-09-17T08:23:23;97963.09;;;25.79;55.98
7962;BME280;4026;43.652;24.906;2022-09-17T08:25:52;97940.78;;;25.60;56.32
7962;BME280;4026;43.652;24.906;2022-09-17T08:28:19;97944.13;;;25.55;58.55
7962;BME280;4026;43.652;24.906;2022-09-17T08:30:47;97946.47;;;25.40;57.10
7962;BME280;4026;43.652;24.906;2022-09-17T08:33:15;97947.25;;;25.40;58.28
7962;BME280;4026;43.652;24.906;2022-09-17T08:35:42;97937.25;;;25.37;58.39
7962;BME280;4026;43.652;24.906;2022-09-17T08:38:08;97944.91;;;25.27;57.71
7962;BME280;4026;43.652;24.906;2022-09-17T08:40:40;97950.72;;;25.29;59.54
7962;BME280;4026;43.652;24.906;2022-09-17T08:43:14;97958.13;;;25.20;58.76
7962;BME280;4026;43.652;24.906;2022-09-17T08:45:44;97962.34;;;25.10;55.90
7962;BME280;4026;43.652;24.906;2022-09-17T08:48:12;97965.22;;;25.08;56.90
7962;BME280;4026;43.652;24.906;2022-09-17T08:50:43;97979.91;;;24.97;57.07
7962;BME280;4026;43.652;24.906;2022-09-17T08:53:25;97983.13;;;24.76;58.68
7962;BME280;4026;43.652;24.906;2022-09-17T08:55:58;97982.88;;;24.66;59.43
7962;BME280;4026;43.652;24.906;2022-09-17T08:58:35;97984.59;;;24.60;60.89
7962;BME280;4026;43.652;24.906;2022-09-17T09:01:14;97982.44;;;24.45;61.24
7962;BME280;4026;43.652;24.906;2022-09-17T09:03:57;97989.25;;;24.46;61.67
7962;BME280;4026;43.652;24.906;2022-09-17T09:06:31;97997.63;;;24.25;61.34
7962;BME280;4026;43.652;24.906;2022-09-17T09:09:03;97986.25;;;24.19;62.57
7962;BME280;4026;43.652;24.906;2022-09-17T09:11:31;97965.50;;;24.24;62.98
7962;BME280;4026;43.652;24.906;2022-09-17T09:14:04;97955.63;;;24.38;63.98
7962;BME280;4026;43.652;24.906;2022-09-17T09:16:36;97957.81;;;24.53;61.37
7962;BME280;4026;43.652;24.906;2022-09-17T09:19:17;97954.25;;;24.71;61.75
7962;BME280;4026;43.652;24.906;2022-09-17T09:21:58;97965.81;;;24.75;62.54
7962;BME280;4026;43.652;24.906;2022-09-17T09:24:34;97955.63;;;24.61;61.27
7962;BME280;4026;43.652;24.906;2022-09-17T09:27:13;97961.38;;;24.40;62.52
7962;BME280;4026;43.652;24.906;2022-09-17T09:29:46;97966.31;;;24.48;64.29
7962;BME280;4026;43.652;24.906;2022-09-17T09:32:22;97972.91;;;24.62;65.12
7962;BME280;4026;43.652;24.906;2022-09-17T09:34:53;97973.34;;;24.59;64.14
7962;BME280;4026;43.652;24.906;2022-09-17T09:37:24;97997.34;;;24.45;64.06
7962;BME280;4026;43.652;24.906;2022-09-17T09:39:54;97979.22;;;24.20;63.69
7962;BME280;4026;43.652;24.906;2022-09-17T09:42:27;97951.97;;;24.15;65.67
7962;BME280;4026;43.652;24.906;2022-09-17T09:44:57;97954.81;;;24.26;65.01
7962;BME280;4026;43.652;24.906;2022-09-17T09:47:40;97988.53;;;24.15;65.27
7962;BME280;4026;43.652;24.906;2022-09-17T09:50:33;97987.94;;;24.02;64.78
7962;BME280;4026;43.652;24.906;2022-09-17T09:53:11;97981.59;;;24.09;65.51
7962;BME280;4026;43.652;24.906;2022-09-17T09:55:59;97976.66;;;23.78;65.82
7962;BME280;4026;43.652;24.906;2022-09-17T09:58:33;97997.81;;;23.69;65.59
7962;BME280;4026;43.652;24.906;2022-09-17T10:01:00;98004.84;;;23.69;67.08
7962;BME280;4026;43.652;24.906;2022-09-17T10:03:29;98006.97;;;23.90;66.96
7962;BME280;4026;43.652;24.906;2022-09-17T10:05:59;98007.84;;;24.14;65.15
7962;BME280;4026;43.652;24.906;2022-09-17T10:08:28;98009.44;;;24.39;66.11
7962;BME280;4026;43.652;24.906;2022-09-17T10:10:58;98018.56;;;24.60;63.77
7962;BME280;4026;43.652;24.906;2022-09-17T10:13:26;98006.28;;;24.60;64.39
7962;BME280;4026;43.652;24.906;2022-09-17T10:15:53;98009.72;;;24.73;63.02
7962;BME280;4026;43.652;24.906;2022-09-17T10:18:21;98019.81;;;24.81;62.77
7962;BME280;4026;43.652;24.906;2022-09-17T10:20:57;98021.41;;;24.82;63.01
7962;BME280;4026;43.652;24.906;2022-09-17T10:23:27;98025.50;;;24.78;63.98
7962;BME280;4026;43.652;24.906;2022-09-17T10:25:56;98031.44;;;24.73;62.39
7962;BME280;4026;43.652;24.906;2022-09-17T10:28:45;98035.50;;;24.69;62.45
7962;BME280;4026;43.652;24.906;2022-09-17T10:31:15;98048.22;;;24.77;62.18
7962;BME280;4026;43.652;24.906;2022-09-17T10:33:55;98056.31;;;24.76;61.83
7962;BME280;4026;43.652;24.906;2022-09-17T10:36:40;98060.19;;;24.85;62.74
7962;BME280;4026;43.652;24.906;2022-09-17T10:39:29;98065.88;;;24.82;61.87
7962;BME280;4026;43.652;24.906;2022-09-17T10:41:58;98073.72;;;24.82;63.12
7962;BME280;4026;43.652;24.906;2022-09-17T10:44:26;98071.53;;;24.79;63.13
7962;BME280;4026;43.652;24.906;2022-09-17T10:46:54;98064.72;;;24.78;62.60
7962;BME280;4026;43.652;24.906;2022-09-17T10:49:34;98073.00;;;24.75;61.88
7962;BME280;4026;43.652;24.906;2022-09-17T10:52:10;98085.41;;;24.68;61.64
7962;BME280;4026;43.652;24.906;2022-09-17T10:54:49;98097.09;;;24.65;61.47
7962;BME280;4026;43.652;24.906;2022-09-17T10:57:23;98098.78;;;24.48;61.55
7962;BME280;4026;43.652;24.906;2022-09-17T11:00:02;98103.88;;;24.43;63.35
7962;BME280;4026;43.652;24.906;2022-09-17T11:03:05;98116.16;;;24.12;63.91
7962;BME280;4026;43.652;24.906;2022-09-17T11:05:44;98131.34;;;24.03;65.80
7962;BME280;4026;43.652;24.906;2022-09-17T11:08:20;98144.56;;;23.90;67.87
7962;BME280;4026;43.652;24.906;2022-09-17T11:10:56;98158.63;;;23.70;70.06
7962;BME280;4026;43.652;24.906;2022-09-17T11:13:33;98154.06;;;23.47;71.24
7962;BME280;4026;43.652;24.906;2022-09-17T11:16:12;98148.72;;;23.36;73.87
7962;BME280;4026;43.652;24.906;2022-09-17T11:18:42;98131.81;;;23.01;76.42
7962;BME280;4026;43.652;24.906;2022-09-17T11:21:36;98129.25;;;22.95;78.88
7962;BME280;4026;43.652;24.906;2022-09-17T11:27:20;98115.75;;;22.09;83.82
7962;BME280;4026;43.652;24.906;2022-09-17T11:30:04;98101.03;;;21.97;85.14
7962;BME280;4026;43.652;24.906;2022-09-17T11:35:43;98094.56;;;21.67;86.21
7962;BME280;4026;43.652;24.906;2022-09-17T11:38:18;98094.00;;;21.59;85.94
7962;BME280;4026;43.652;24.906;2022-09-17T11:40:51;98081.19;;;21.57;87.11
7962;BME280;4026;43.652;24.906;2022-09-17T11:43:25;98066.84;;;21.41;88.42
7962;BME280;4026;43.652;24.906;2022-09-17T11:45:59;98057.19;;;21.48;88.74
7962;BME280;4026;43.652;24.906;2022-09-17T11:48:32;98052.38;;;21.59;89.21
7962;BME280;4026;43.652;24.906;2022-09-17T11:51:06;98047.50;;;21.69;88.91
7962;BME280;4026;43.652;24.906;2022-09-17T11:53:42;98036.63;;;21.85;89.49
7962;BME280;4026;43.652;24.906;2022-09-17T11:56:16;98022.13;;;21.96;90.00
7962;BME280;4026;43.652;24.906;2022-09-17T11:58:48;98023.31;;;22.00;88.19
7962;BME280;4026;43.652;24.906;2022-09-17T12:01:25;98019.75;;;21.95;87.25
7962;BME280;4026;43.652;24.906;2022-09-17T12:03:56;98023.44;;;22.12;87.34
7962;BME280;4026;43.652;24.906;2022-09-17T12:06:33;98018.06;;;22.07;87.80
7962;BME280;4026;43.652;24.906;2022-09-17T12:09:03;98018.66;;;22.09;85.37
7962;BME280;4026;43.652;24.906;2022-09-17T12:11:39;97991.78;;;22.15;85.83
7962;BME280;4026;43.652;24.906;2022-09-17T12:14:15;97970.03;;;22.03;83.38
7962;BME280;4026;43.652;24.906;2022-09-17T12:16:44;97975.44;;;22.01;82.83
7962;BME280;4026;43.652;24.906;2022-09-17T12:19:17;97977.69;;;21.98;84.89
7962;BME280;4026;43.652;24.906;2022-09-17T12:21:48;97970.75;;;22.17;85.79
7962;BME280;4026;43.652;24.906;2022-09-17T12:24:21;97967.09;;;22.24;84.60
7962;BME280;4026;43.652;24.906;2022-09-17T12:26:58;97965.34;;;22.18;83.91
7962;BME280;4026;43.652;24.906;2022-09-17T12:29:46;97969.13;;;22.15;83.44
7962;BME280;4026;43.652;24.906;2022-09-17T12:32:45;97967.63;;;22.08;83.77
7962;BME280;4026;43.652;24.906;2022-09-17T12:35:24;97959.28;;;21.92;81.78
7962;BME280;4026;43.652;24.906;2022-09-17T12:38:06;97952.22;;;21.75;82.79
7962;BME280;4026;43.652;24.906;2022-09-17T12:40:38;97935.31;;;21.59;83.85
7962;BME280;4026;43.652;24.906;2022-09-17T12:43:23;97939.16;;;21.50;83.67
7962;BME280;4026;43.652;24.906;2022-09-17T12:46:07;97934.31;;;21.60;84.23
7962;BME280;4026;43.652;24.906;2022-09-17T12:51:46;97937.75;;;21.85;85.66
7962;BME280;4026;43.652;24.906;2022-09-17T12:54:28;97941.59;;;22.08;86.17
7962;BME280;4026;43.652;24.906;2022-09-17T12:57:04;97957.75;;;22.10;84.26
7962;BME280;4026;43.652;24.906;2022-09-17T12:59:38;97989.44;;;22.07;83.64
7962;BME280;4026;43.652;24.906;2022-09-17T13:02:14;97995.22;;;22.09;83.66
7962;BME280;4026;43.652;24.906;2022-09-17T13:11:06;97972.41;;;22.11;85.68
7962;BME280;4026;43.652;24.906;2022-09-17T13:13:45;97965.94;;;22.20;86.59
7962;BME280;4026;43.652;24.906;2022-09-17T13:16:17;97965.16;;;22.13;84.04
7962;BME280;4026;43.652;24.906;2022-09-17T13:18:54;97948.03;;;21.99;83.52
7962;BME280;4026;43.652;24.906;2022-09-17T13:21:30;97920.44;;;21.98;82.81
7962;BME280;4026;43.652;24.906;2022-09-17T13:23:58;97903.22;;;21.97;82.10
7962;BME280;4026;43.652;24.906;2022-09-17T13:26:33;97892.81;;;21.97;80.60
7962;BME280;4026;43.652;24.906;2022-09-17T13:29:00;97888.41;;;21.97;82.36
7962;BME280;4026;43.652;24.906;2022-09-17T13:31:46;97877.19;;;21.97;82.17
7962;BME280;4026;43.652;24.906;2022-09-17T13:34:33;97857.97;;;21.98;80.78
7962;BME280;4026;43.652;24.906;2022-09-17T13:37:02;97841.50;;;22.04;80.12
7962;BME280;4026;43.652;24.906;2022-09-17T13:39:39;97852.66;;;22.11;80.13
7962;BME280;4026;43.652;24.906;2022-09-17T13:42:11;97850.03;;;22.11;79.65
7962;BME280;4026;43.652;24.906;2022-09-17T13:44:44;97848.53;;;22.22;80.59
7962;BME280;4026;43.652;24.906;2022-09-17T13:47:22;97840.47;;;22.30;80.85
7962;BME280;4026;43.652;24.906;2022-09-17T13:49:57;97855.72;;;22.26;79.18
7962;BME280;4026;43.652;24.906;2022-09-17T13:52:33;97845.59;;;22.18;79.02